createdAt,value
2022-10-05T00:00:18.609Z,100198.72
2022-10-05T00:01:52.943Z,100202.19
2022-10-05T00:03:27.222Z,100194.28
2022-10-05T00:05:02.002Z,100198.66
2022-10-05T00:06:35.313Z,100198.66
2022-10-05T00:08:15.253Z,100204.03
2022-10-05T00:09:56.397Z,100206.75
2022-10-05T00:11:29.857Z,100214.72
2022-10-05T00:13:02.332Z,100214.81
2022-10-05T00:14:37.599Z,100209.63
2022-10-05T00:16:17.459Z,100207.88
2022-10-05T00:17:50.734Z,100201.81
2022-10-05T00:19:30.217Z,100202.69
2022-10-05T00:21:17.973Z,100212.41
2022-10-05T00:22:56.862Z,100205.44
2022-10-05T00:24:31.105Z,100210.72
2022-10-05T00:26:12.583Z,100214.25
2022-10-05T00:27:55.954Z,100206.38
2022-10-05T00:29:29.501Z,100202.94
2022-10-05T00:31:04.354Z,100215.25
2022-10-05T00:32:37.485Z,100203.88
2022-10-05T00:34:09.824Z,100210.03
2022-10-05T00:35:43.295Z,100199.59
2022-10-05T00:37:17.806Z,100213.56
2022-10-05T00:38:51.192Z,100216.22
2022-10-05T00:40:38.207Z,100219.72
2022-10-05T00:42:35.724Z,100217.06
2022-10-05T00:44:25.424Z,100219.69
2022-10-05T00:46:08.807Z,100223.16
2022-10-05T00:47:55.194Z,100224.06
2022-10-05T00:49:49.694Z,100222.31
2022-10-05T00:51:26.948Z,100232.81
2022-10-05T00:53:12.922Z,100227.53
2022-10-05T00:54:51.122Z,100224.03
2022-10-05T00:56:39.356Z,100228.41
2022-10-05T00:58:24.991Z,100222.25
2022-10-05T01:00:06.498Z,100219.56
2022-10-05T01:01:50.004Z,100237.97
2022-10-05T01:03:28.570Z,100236.19
2022-10-05T01:05:10.816Z,100237.97
2022-10-05T01:06:55.716Z,100245.91
2022-10-05T01:08:41.834Z,100236.31
2022-10-05T01:10:23.154Z,100239.00
2022-10-05T01:12:04.736Z,100245.19
2022-10-05T01:13:48.150Z,100236.50
2022-10-05T01:15:28.879Z,100245.31
2022-10-05T01:17:09.703Z,100238.31
2022-10-05T01:18:51.718Z,100244.44
2022-10-05T01:20:48.657Z,100234.84
2022-10-05T01:22:34.639Z,100251.53
2022-10-05T01:24:40.265Z,100254.31
2022-10-05T01:26:44.786Z,100252.72
2022-10-05T01:28:25.584Z,100244.91
2022-10-05T01:30:04.851Z,100254.59
2022-10-05T01:31:46.271Z,100256.31
2022-10-05T01:33:26.948Z,100251.06
2022-10-05T01:35:07.272Z,100252.81
2022-10-05T01:36:52.615Z,100261.56
2022-10-05T01:38:37.238Z,100256.31
2022-10-05T01:40:19.910Z,100259.84
2022-10-05T01:42:00.009Z,100263.31
2022-10-05T01:43:43.172Z,100268.63
2022-10-05T01:45:24.115Z,100263.38
2022-10-05T01:47:03.307Z,100266.06
2022-10-05T01:48:49.689Z,100266.91
2022-10-05T01:50:31.031Z,100280.94
2022-10-05T01:52:18.499Z,100273.94
2022-10-05T01:54:05.658Z,100281.81
2022-10-05T01:55:46.388Z,100281.78
2022-10-05T01:57:31.654Z,100279.09
2022-10-05T01:59:18.058Z,100270.34
2022-10-05T02:01:01.592Z,100272.09
2022-10-05T02:02:39.711Z,100274.72
2022-10-05T02:04:42.602Z,100272.09
2022-10-05T02:06:16.452Z,100273.84
2022-10-05T02:07:55.409Z,100275.59
2022-10-05T02:09:33.284Z,100280.81
2022-10-05T02:11:08.547Z,100280.78
2022-10-05T02:12:42.905Z,100272.09
2022-10-05T02:14:22.900Z,100286.94
2022-10-05T02:16:01.822Z,100282.53
2022-10-05T02:17:41.013Z,100279.94
2022-10-05T02:19:19.968Z,100282.59
2022-10-05T02:20:55.648Z,100280.91
2022-10-05T02:22:33.674Z,100279.22
2022-10-05T02:24:11.829Z,100287.97
2022-10-05T02:25:48.151Z,100284.44
2022-10-05T02:27:26.785Z,100289.69
2022-10-05T02:29:05.407Z,100303.69
2022-10-05T02:30:45.716Z,100305.47
2022-10-05T02:32:24.208Z,100302.06
2022-10-05T02:34:22.762Z,100309.97
2022-10-05T02:36:02.777Z,100311.78
2022-10-05T02:37:54.499Z,100301.25
2022-10-05T02:39:37.237Z,100299.53
2022-10-05T02:41:21.797Z,100303.91
2022-10-05T02:43:01.057Z,100300.44
2022-10-05T02:44:45.226Z,100295.19
2022-10-05T02:46:30.533Z,100298.66
2022-10-05T02:48:12.302Z,100303.06
2022-10-05T02:49:52.480Z,100303.91
2022-10-05T02:51:29.592Z,100302.16
2022-10-05T02:53:15.606Z,100293.41
2022-10-05T02:54:54.854Z,100285.56
2022-10-05T02:56:33.504Z,100277.72
2022-10-05T02:58:13.156Z,100292.56
2022-10-05T02:59:53.481Z,100297.81
2022-10-05T03:01:33.510Z,100298.69
2022-10-05T03:03:12.470Z,100298.69
2022-10-05T03:04:53.156Z,100305.69
2022-10-05T03:06:31.782Z,100302.19
2022-10-05T03:08:08.838Z,100303.13
2022-10-05T03:09:50.572Z,100311.03
2022-10-05T03:11:31.186Z,100304.97
2022-10-05T03:13:14.210Z,100311.09
2022-10-05T03:15:01.004Z,100315.47
2022-10-05T03:16:48.875Z,100312.88
2022-10-05T03:18:32.920Z,100315.53
2022-10-05T03:20:23.542Z,100321.69
2022-10-05T03:22:02.038Z,100319.97
2022-10-05T03:24:01.893Z,100325.22
2022-10-05T03:25:49.281Z,100337.47
2022-10-05T03:27:36.843Z,100327.84
2022-10-05T03:29:26.524Z,100335.78
2022-10-05T03:31:04.794Z,100339.25
2022-10-05T03:32:50.189Z,100329.63
2022-10-05T03:34:31.400Z,100335.78
2022-10-05T03:36:11.266Z,100342.75
2022-10-05T03:37:48.365Z,100347.13
2022-10-05T03:39:29.081Z,100342.75
2022-10-05T03:41:13.941Z,100356.78
2022-10-05T03:43:00.178Z,100356.78
2022-10-05T03:44:43.413Z,100355.88
2022-10-05T03:46:26.128Z,100349.75
2022-10-05T03:48:09.674Z,100358.53
2022-10-05T03:49:59.153Z,100351.50
2022-10-05T03:51:35.137Z,100352.38
2022-10-05T03:53:16.337Z,100363.75
2022-10-05T03:54:53.365Z,100357.63
2022-10-05T03:56:33.290Z,100364.63
2022-10-05T03:58:15.098Z,100370.75
2022-10-05T03:59:58.656Z,100371.63
2022-10-05T04:01:43.538Z,100375.97
2022-10-05T04:03:23.306Z,100375.09
2022-10-05T04:05:01.522Z,100375.97
2022-10-05T04:06:39.455Z,100371.59
2022-10-05T04:08:21.105Z,100375.97
2022-10-05T04:09:56.121Z,100384.69
2022-10-05T04:11:33.069Z,100393.47
2022-10-05T04:13:14.171Z,100389.97
2022-10-05T04:14:50.469Z,100384.69
2022-10-05T04:16:29.133Z,100390.84
2022-10-05T04:18:06.748Z,100395.22
2022-10-05T04:19:47.179Z,100398.72
2022-10-05T04:21:24.982Z,100393.47
2022-10-05T04:23:09.232Z,100397.84
2022-10-05T04:24:47.506Z,100391.69
2022-10-05T04:26:29.580Z,100395.19
2022-10-05T04:28:11.736Z,100410.09
2022-10-05T04:29:52.273Z,100396.06
2022-10-05T04:31:40.280Z,100402.16
2022-10-05T04:33:16.233Z,100396.94
2022-10-05T04:35:10.899Z,100408.28
2022-10-05T04:36:50.358Z,100410.09
2022-10-05T04:38:36.252Z,100410.97
2022-10-05T04:40:22.970Z,100413.59
2022-10-05T04:42:09.400Z,100405.75
2022-10-05T04:43:53.639Z,100414.50
2022-10-05T04:45:40.620Z,100414.50
2022-10-05T04:47:37.001Z,100425.00
2022-10-05T04:49:36.023Z,100419.75
2022-10-05T04:51:23.876Z,100435.53
2022-10-05T04:53:07.582Z,100427.63
2022-10-05T04:54:55.385Z,100435.50
2022-10-05T04:56:36.452Z,100435.50
2022-10-05T04:58:20.600Z,100432.00
2022-10-05T05:00:17.368Z,100446.88
2022-10-05T05:02:06.635Z,100439.00
2022-10-05T05:03:58.187Z,100447.72
2022-10-05T05:06:04.997Z,100447.72
2022-10-05T05:07:46.293Z,100449.41
2022-10-05T05:09:40.575Z,100438.88
2022-10-05T05:11:26.224Z,100453.72
2022-10-05T05:13:13.265Z,100457.22
2022-10-05T05:15:14.698Z,100451.06
2022-10-05T05:16:58.318Z,100460.69
2022-10-05T05:18:50.056Z,100464.22
2022-10-05T05:20:32.486Z,100463.31
2022-10-05T05:22:09.820Z,100465.03
2022-10-05T05:23:50.739Z,100476.38
2022-10-05T05:25:36.481Z,100477.13
2022-10-05T05:27:25.070Z,100482.19
2022-10-05T05:29:07.635Z,100479.34
2022-10-05T05:30:47.233Z,100492.22
2022-10-05T05:32:32.175Z,100486.75
2022-10-05T05:34:19.046Z,100489.22
2022-10-05T05:36:12.489Z,100489.75
2022-10-05T05:37:58.635Z,100487.53
2022-10-05T05:39:41.194Z,100487.16
2022-10-05T05:41:25.024Z,100481.56
2022-10-05T05:43:01.880Z,100491.69
2022-10-05T05:44:41.846Z,100498.91
2022-10-05T05:46:38.895Z,100495.38
2022-10-05T05:48:20.305Z,100490.66
2022-10-05T05:50:07.879Z,100502.78
2022-10-05T05:51:49.515Z,100496.91
2022-10-05T05:53:29.604Z,100495.06
2022-10-05T05:55:14.354Z,100489.84
2022-10-05T05:56:52.741Z,100486.34
2022-10-05T05:58:30.802Z,100490.88
2022-10-05T06:00:09.390Z,100484.38
2022-10-05T06:02:08.387Z,100487.00
2022-10-05T06:03:46.098Z,100469.31
2022-10-05T06:05:30.056Z,100469.22
2022-10-05T06:07:06.391Z,100475.06
2022-10-05T06:08:44.741Z,100476.78
2022-10-05T06:10:49.580Z,100476.38
2022-10-05T06:12:26.363Z,100469.53
2022-10-05T06:14:05.392Z,100473.44
2022-10-05T06:15:42.135Z,100467.09
2022-10-05T06:17:20.947Z,100469.84
2022-10-05T06:18:58.611Z,100457.97
2022-10-05T06:20:38.384Z,100459.84
2022-10-05T06:22:19.245Z,100449.84
2022-10-05T06:23:57.839Z,100449.91
2022-10-05T06:25:37.704Z,100453.38
2022-10-05T06:27:26.287Z,100456.44
2022-10-05T06:29:05.322Z,100466.41
2022-10-05T06:30:57.887Z,100458.19
2022-10-05T06:32:35.153Z,100458.72
2022-10-05T06:34:24.366Z,100466.53
2022-10-05T06:36:13.970Z,100465.56
2022-10-05T06:38:07.844Z,100467.16
2022-10-05T06:40:00.952Z,100465.56
2022-10-05T06:41:50.988Z,100465.56
2022-10-05T06:43:44.794Z,100475.03
2022-10-05T06:45:55.710Z,100462.06
2022-10-05T06:47:48.358Z,100468.91
2022-10-05T06:49:48.722Z,100465.38
2022-10-05T06:51:59.464Z,100456.22
2022-10-05T06:53:44.690Z,100477.09
2022-10-05T06:55:25.088Z,100475.72
2022-10-05T06:57:06.386Z,100478.69
2022-10-05T06:58:54.915Z,100476.81
2022-10-05T07:00:36.115Z,100474.03
2022-10-05T07:02:19.169Z,100483.19
2022-10-05T07:04:10.659Z,100474.72
2022-10-05T07:05:56.687Z,100475.53
2022-10-05T07:07:36.886Z,100471.88
2022-10-05T07:09:26.860Z,100468.41
2022-10-05T07:11:08.307Z,100477.50
2022-10-05T07:12:53.824Z,100472.03
2022-10-05T07:14:46.005Z,100470.84
2022-10-05T07:16:30.108Z,100473.91
2022-10-05T07:18:16.643Z,100466.28
2022-10-05T07:19:58.499Z,100475.19
2022-10-05T07:21:39.620Z,100464.63
2022-10-05T07:23:26.726Z,100461.69
2022-10-05T07:25:08.512Z,100458.69
2022-10-05T07:26:46.835Z,100459.94
2022-10-05T07:28:29.487Z,100451.28
2022-10-05T07:30:07.319Z,100463.81
2022-10-05T07:31:49.169Z,100448.09
2022-10-05T07:33:27.715Z,100472.84
2022-10-05T07:35:07.461Z,100464.31
2022-10-05T07:37:03.156Z,100458.66
2022-10-05T07:38:41.557Z,100454.63
2022-10-05T07:40:20.078Z,100451.75
2022-10-05T07:42:01.142Z,100458.88
2022-10-05T07:44:01.378Z,100451.19
2022-10-05T07:45:47.091Z,100465.25
2022-10-05T07:47:30.322Z,100464.44
2022-10-05T07:49:10.732Z,100450.94
2022-10-05T07:50:58.053Z,100459.19
2022-10-05T07:52:37.674Z,100452.09
2022-10-05T07:54:20.491Z,100452.78
2022-10-05T07:55:56.930Z,100452.81
2022-10-05T07:57:40.217Z,100450.56
2022-10-05T07:59:23.561Z,100458.94
2022-10-05T08:01:08.180Z,100458.94
2022-10-05T08:02:50.537Z,100459.25
2022-10-05T08:04:29.208Z,100461.78
2022-10-05T08:06:06.797Z,100456.69
2022-10-05T08:07:41.453Z,100451.03
2022-10-05T08:09:30.155Z,100462.75
2022-10-05T08:11:08.937Z,100465.81
2022-10-05T08:12:56.065Z,100459.16
2022-10-05T08:14:39.887Z,100449.75
2022-10-05T08:16:15.035Z,100451.03
2022-10-05T08:17:54.346Z,100455.72
2022-10-05T08:19:35.369Z,100451.94
2022-10-05T08:21:12.216Z,100453.66
2022-10-05T08:22:49.433Z,100448.59
2022-10-05T08:24:38.500Z,100461.75
2022-10-05T08:26:22.898Z,100466.28
2022-10-05T08:28:04.542Z,100452.03
2022-10-05T08:29:42.471Z,100466.91
2022-10-05T08:31:22.764Z,100459.81
2022-10-05T08:33:04.333Z,100451.06
2022-10-05T08:34:46.892Z,100438.31
2022-10-05T08:36:29.483Z,100447.13
2022-10-05T08:38:05.420Z,100453.97
2022-10-05T08:39:41.408Z,100438.59
2022-10-05T08:41:45.942Z,100440.91
2022-10-05T08:43:50.881Z,100445.16
2022-10-05T08:45:53.754Z,100438.25
2022-10-05T08:47:49.551Z,100439.03
2022-10-05T08:49:57.544Z,100433.25
2022-10-05T08:51:45.646Z,100434.41
2022-10-05T08:53:39.294Z,100428.22
2022-10-05T08:55:36.103Z,100430.41
2022-10-05T08:57:39.857Z,100422.88
2022-10-05T09:00:00.480Z,100423.72
2022-10-05T09:01:50.899Z,100422.22
2022-10-05T09:03:47.399Z,100425.56
2022-10-05T09:05:50.397Z,100440.41
2022-10-05T09:07:50.725Z,100437.31
2022-10-05T09:09:50.335Z,100433.44
2022-10-05T09:11:33.652Z,100434.56
2022-10-05T09:13:39.495Z,100435.28
2022-10-05T09:15:44.232Z,100434.47
2022-10-05T09:17:39.112Z,100436.06
2022-10-05T09:20:00.573Z,100434.66
2022-10-05T09:21:43.003Z,100434.56
2022-10-05T09:23:36.091Z,100447.38
2022-10-05T09:25:23.102Z,100432.19
2022-10-05T09:27:13.374Z,100435.25
2022-10-05T09:29:03.046Z,100445.09
2022-10-05T09:30:53.876Z,100436.94
2022-10-05T09:32:58.740Z,100433.72
2022-10-05T09:34:50.396Z,100438.25
2022-10-05T09:37:15.715Z,100435.88
2022-10-05T09:39:25.423Z,100435.53
2022-10-05T09:41:40.727Z,100440.34
2022-10-05T09:43:48.607Z,100438.72
2022-10-05T09:45:37.141Z,100435.19
2022-10-05T09:47:46.521Z,100436.75
2022-10-05T09:50:04.676Z,100436.34
2022-10-05T09:52:07.182Z,100430.28
2022-10-05T09:54:03.309Z,100436.47
2022-10-05T09:56:09.380Z,100435.78
2022-10-05T09:58:08.197Z,100433.53
2022-10-05T10:00:09.110Z,100431.78
2022-10-05T10:02:17.092Z,100432.91
2022-10-05T10:04:24.811Z,100438.16
2022-10-05T10:06:26.218Z,100433.94
2022-10-05T10:08:20.405Z,100435.06
2022-10-05T10:10:15.129Z,100446.31
2022-10-05T10:12:12.453Z,100436.81
2022-10-05T10:14:42.358Z,100443.56
2022-10-05T10:16:27.343Z,100438.56
2022-10-05T10:18:15.747Z,100444.88
2022-10-05T10:20:19.990Z,100441.47
2022-10-05T10:22:17.599Z,100442.50
2022-10-05T10:24:15.230Z,100436.28
2022-10-05T10:26:01.518Z,100439.19
2022-10-05T10:27:54.301Z,100445.81
2022-10-05T10:29:52.479Z,100439.56
2022-10-05T10:31:47.034Z,100441.47
2022-10-05T10:34:01.846Z,100433.59
2022-10-05T10:35:37.153Z,100425.63
2022-10-05T10:37:34.665Z,100429.81
2022-10-05T10:39:15.628Z,100430.34
2022-10-05T10:41:16.811Z,100436.63
2022-10-05T10:43:08.038Z,100427.97
2022-10-05T10:45:06.440Z,100422.94
2022-10-05T10:46:50.645Z,100426.41
2022-10-05T10:48:51.407Z,100426.56
2022-10-05T10:51:03.623Z,100414.56
2022-10-05T10:52:49.855Z,100410.41
2022-10-05T10:55:07.406Z,100402.75
2022-10-05T10:57:03.238Z,100417.19
2022-10-05T10:59:20.752Z,100409.41
2022-10-05T11:01:04.761Z,100400.06
2022-10-05T11:03:25.541Z,100405.44
2022-10-05T11:05:26.194Z,100399.47
2022-10-05T11:07:41.805Z,100392.06
2022-10-05T11:09:50.432Z,100396.69
2022-10-05T11:11:38.414Z,100384.81
2022-10-05T11:13:42.926Z,100385.31
2022-10-05T11:16:03.427Z,100375.38
2022-10-05T11:18:00.976Z,100377.38
2022-10-05T11:20:04.115Z,100380.47
2022-10-05T11:21:46.931Z,100371.81
2022-10-05T11:24:01.487Z,100373.56
2022-10-05T11:25:56.725Z,100367.84
2022-10-05T11:27:59.983Z,100363.81
2022-10-05T11:30:06.922Z,100364.81
2022-10-05T11:32:08.940Z,100365.03
2022-10-05T11:34:09.964Z,100366.44
2022-10-05T11:35:57.238Z,100367.16
2022-10-05T11:37:48.803Z,100368.00
2022-10-05T11:39:44.573Z,100363.84
2022-10-05T11:41:47.997Z,100348.59
2022-10-05T11:43:42.402Z,100349.84
2022-10-05T11:45:28.124Z,100346.81
2022-10-05T11:47:10.878Z,100344.69
2022-10-05T11:49:08.390Z,100341.38
2022-10-05T11:50:50.973Z,100348.78
2022-10-05T11:52:31.749Z,100332.88
2022-10-05T11:54:29.541Z,100344.75
2022-10-05T11:56:15.483Z,100345.94
2022-10-05T11:57:56.985Z,100334.88
2022-10-05T11:59:36.542Z,100336.72
2022-10-05T12:01:18.904Z,100341.75
2022-10-05T12:03:22.857Z,100332.63
2022-10-05T12:05:04.678Z,100334.28
2022-10-05T12:07:13.443Z,100343.66
2022-10-05T12:09:06.466Z,100338.69
2022-10-05T12:10:49.551Z,100338.19
2022-10-05T12:12:29.242Z,100337.53
2022-10-05T12:14:07.927Z,100333.69
2022-10-05T12:15:49.336Z,100340.69
2022-10-05T12:17:33.741Z,100337.09
2022-10-05T12:19:14.575Z,100337.59
2022-10-05T12:20:51.454Z,100346.91
2022-10-05T12:22:32.729Z,100350.38
2022-10-05T12:24:15.639Z,100342.84
2022-10-05T12:25:55.290Z,100349.25
2022-10-05T12:27:33.172Z,100342.13
2022-10-05T12:29:14.988Z,100345.66
2022-10-05T12:31:11.490Z,100350.19
2022-10-05T12:33:00.915Z,100350.00
2022-10-05T12:34:44.405Z,100352.63
2022-10-05T12:36:31.928Z,100350.78
2022-10-05T12:38:29.063Z,100354.25
2022-10-05T12:40:07.291Z,100353.09
2022-10-05T12:41:46.535Z,100360.28
2022-10-05T12:43:29.879Z,100355.97
2022-10-05T12:45:18.334Z,100362.13
2022-10-05T12:47:02.345Z,100352.78
2022-10-05T12:49:09.595Z,100359.13
2022-10-05T12:50:46.520Z,100343.56
2022-10-05T12:52:39.326Z,100346.34
2022-10-05T12:54:23.350Z,100347.50
2022-10-05T12:56:05.520Z,100343.84
2022-10-05T12:57:50.221Z,100344.63
2022-10-05T12:59:35.480Z,100333.25
2022-10-05T13:01:19.238Z,100327.41
2022-10-05T13:02:59.354Z,100333.28
2022-10-05T13:04:42.789Z,100321.16
2022-10-05T13:06:27.555Z,100323.50
2022-10-05T13:08:18.135Z,100321.41
2022-10-05T13:09:59.513Z,100315.22
2022-10-05T13:11:39.655Z,100312.16
2022-10-05T13:13:28.867Z,100317.53
2022-10-05T13:15:09.154Z,100305.44
2022-10-05T13:16:55.105Z,100308.81
2022-10-05T13:18:38.779Z,100300.34
2022-10-05T13:20:23.952Z,100293.31
2022-10-05T13:22:18.319Z,100296.75
2022-10-05T13:24:00.242Z,100285.72
2022-10-05T13:25:37.304Z,100288.31
2022-10-05T13:27:20.618Z,100286.59
2022-10-05T13:29:00.780Z,100297.19
2022-10-05T13:30:35.411Z,100303.63
2022-10-05T13:32:16.971Z,100299.50
2022-10-05T13:34:13.011Z,100297.91
2022-10-05T13:35:54.210Z,100300.84
2022-10-05T13:37:35.047Z,100306.00
2022-10-05T13:39:21.958Z,100308.81
2022-10-05T13:41:08.153Z,100308.81
2022-10-05T13:42:48.306Z,100312.25
2022-10-05T13:44:31.031Z,100306.88
2022-10-05T13:46:12.756Z,100305.16
2022-10-05T13:47:57.541Z,100304.97
2022-10-05T13:49:40.164Z,100314.84
2022-10-05T13:51:20.487Z,100318.69
2022-10-05T13:53:00.956Z,100316.97
2022-10-05T13:54:41.513Z,100311.00
2022-10-05T13:56:21.909Z,100322.09
2022-10-05T13:58:05.883Z,100320.03
2022-10-05T13:59:47.618Z,100318.31
2022-10-05T14:01:26.279Z,100319.84
2022-10-05T14:03:02.042Z,100309.19
2022-10-05T14:04:45.631Z,100326.78
2022-10-05T14:06:30.948Z,100317.25
2022-10-05T14:08:18.330Z,100306.78
2022-10-05T14:09:51.968Z,100306.03
2022-10-05T14:11:32.003Z,100288.69
2022-10-05T14:13:21.075Z,100305.31
2022-10-05T14:14:56.865Z,100307.88
2022-10-05T14:16:30.387Z,100305.00
2022-10-05T14:18:24.845Z,100306.53
2022-10-05T14:20:01.060Z,100314.59
2022-10-05T14:21:49.771Z,100311.91
2022-10-05T14:23:27.473Z,100304.16
2022-10-05T14:25:17.149Z,100305.94
2022-10-05T14:26:55.095Z,100304.81
2022-10-05T14:28:30.772Z,100302.50
2022-10-05T14:30:20.251Z,100303.66
2022-10-05T14:31:56.409Z,100297.31
2022-10-05T14:33:31.915Z,100305.28
2022-10-05T14:35:14.831Z,100299.03
2022-10-05T14:36:57.363Z,100300.97
2022-10-05T14:38:33.746Z,100293.09
2022-10-05T14:40:24.640Z,100301.50
2022-10-05T14:42:03.536Z,100301.19
2022-10-05T14:43:38.789Z,100299.34
2022-10-05T14:45:15.403Z,100304.56
2022-10-05T14:46:54.575Z,100301.72
2022-10-05T14:48:29.394Z,100302.06
2022-10-05T14:50:17.227Z,100301.47
2022-10-05T14:51:53.493Z,100294.56
2022-10-05T14:53:38.222Z,100311.88
2022-10-05T14:55:23.267Z,100305.63
2022-10-05T14:57:07.172Z,100305.84
2022-10-05T14:58:55.667Z,100306.84
2022-10-05T15:00:33.986Z,100307.91
2022-10-05T15:02:24.465Z,100305.59
2022-10-05T15:04:08.809Z,100313.44
2022-10-05T15:05:49.305Z,100314.22
2022-10-05T15:07:29.552Z,100315.09
2022-10-05T15:09:26.225Z,100304.44
2022-10-05T15:11:05.334Z,100318.63
2022-10-05T15:12:44.073Z,100308.81
2022-10-05T15:14:21.124Z,100311.50
2022-10-05T15:15:57.838Z,100321.31
2022-10-05T15:17:38.569Z,100320.16
2022-10-05T15:19:18.400Z,100321.91
2022-10-05T15:20:58.538Z,100321.75
2022-10-05T15:22:43.967Z,100325.72
2022-10-05T15:24:22.029Z,100323.56
2022-10-05T15:26:08.520Z,100313.25
2022-10-05T15:28:00.305Z,100318.06
2022-10-05T15:29:52.197Z,100329.38
2022-10-05T15:31:32.499Z,100326.09
2022-10-05T15:33:13.970Z,100331.69
2022-10-05T15:34:58.601Z,100321.22
2022-10-05T15:36:43.075Z,100333.88
2022-10-05T15:38:23.199Z,100334.91
2022-10-05T15:40:01.097Z,100323.84
2022-10-05T15:41:47.212Z,100347.72
2022-10-05T15:43:22.770Z,100339.53
2022-10-05T15:45:06.248Z,100341.41
2022-10-05T15:46:50.671Z,100338.06
2022-10-05T15:48:30.342Z,100338.06
2022-10-05T15:50:14.470Z,100343.25
2022-10-05T15:51:57.602Z,100342.00
2022-10-05T15:53:43.283Z,100337.09
2022-10-05T15:55:26.505Z,100352.75
2022-10-05T15:57:06.469Z,100352.75
2022-10-05T15:58:51.881Z,100359.50
2022-10-05T16:00:27.646Z,100366.03
2022-10-05T16:02:06.609Z,100367.44
2022-10-05T16:03:50.342Z,100366.03
2022-10-05T16:05:53.522Z,100363.63
2022-10-05T16:07:49.820Z,100368.34
2022-10-05T16:09:47.899Z,100362.47
2022-10-05T16:11:46.420Z,100360.25
2022-10-05T16:13:34.214Z,100362.44
2022-10-05T16:15:21.737Z,100366.59
2022-10-05T16:17:07.453Z,100369.69
2022-10-05T16:18:53.477Z,100372.56
2022-10-05T16:20:36.930Z,100375.75
2022-10-05T16:22:23.811Z,100373.47
2022-10-05T16:24:09.659Z,100372.00
2022-10-05T16:25:53.303Z,100384.72
2022-10-05T16:27:36.292Z,100390.34
2022-10-05T16:29:16.317Z,100395.03
2022-10-05T16:31:07.255Z,100398.84
2022-10-05T16:32:50.077Z,100394.75
2022-10-05T16:34:33.595Z,100392.31
2022-10-05T16:36:19.506Z,100398.91
2022-10-05T16:38:05.937Z,100408.09
2022-10-05T16:39:51.323Z,100406.75
2022-10-05T16:41:33.561Z,100407.72
2022-10-05T16:43:22.652Z,100412.44
2022-10-05T16:45:06.915Z,100416.38
2022-10-05T16:46:46.538Z,100413.09
2022-10-05T16:48:26.792Z,100409.72
2022-10-05T16:50:10.027Z,100410.00
2022-10-05T16:51:54.267Z,100417.28
2022-10-05T16:53:34.562Z,100418.63
2022-10-05T16:55:14.534Z,100410.97
2022-10-05T16:56:53.974Z,100425.84
2022-10-05T16:58:43.106Z,100423.56
2022-10-05T17:00:22.256Z,100430.00
2022-10-05T17:02:05.556Z,100416.41
2022-10-05T17:03:50.445Z,100423.31
2022-10-05T17:05:40.705Z,100427.97
2022-10-05T17:07:28.776Z,100433.63
2022-10-05T17:09:20.536Z,100434.09
2022-10-05T17:11:03.249Z,100433.41
2022-10-05T17:12:53.365Z,100437.97
2022-10-05T17:14:39.091Z,100438.28
2022-10-05T17:16:21.645Z,100440.34
2022-10-05T17:18:07.431Z,100447.06
2022-10-05T17:19:49.859Z,100448.00
2022-10-05T17:21:32.561Z,100443.00
2022-10-05T17:23:23.894Z,100448.47
2022-10-05T17:25:08.679Z,100449.56
2022-10-05T17:27:02.930Z,100443.56
2022-10-05T17:28:44.413Z,100454.31
2022-10-05T17:30:50.589Z,100450.84
2022-10-05T17:32:36.663Z,100451.03
2022-10-05T17:34:31.120Z,100452.97
2022-10-05T17:36:19.264Z,100455.69
2022-10-05T17:38:14.263Z,100456.66
2022-10-05T17:39:53.518Z,100466.47
2022-10-05T17:41:30.548Z,100460.28
2022-10-05T17:43:24.039Z,100452.44
2022-10-05T17:45:00.651Z,100456.94
2022-10-05T17:46:42.614Z,100452.63
2022-10-05T17:48:54.254Z,100467.78
2022-10-05T17:50:57.129Z,100467.78
2022-10-05T17:52:47.938Z,100469.59
2022-10-05T17:54:41.128Z,100461.94
2022-10-05T17:56:14.439Z,100472.06
2022-10-05T17:57:46.979Z,100478.00
2022-10-05T17:59:39.928Z,100476.63
2022-10-05T18:01:26.817Z,100478.78
2022-10-05T18:03:00.276Z,100487.94
2022-10-05T18:04:42.465Z,100486.31
2022-10-05T18:06:44.942Z,100498.25
2022-10-05T18:08:32.620Z,100499.28
2022-10-05T18:10:27.982Z,100491.53
2022-10-05T18:12:11.000Z,100492.47
2022-10-05T18:13:50.175Z,100501.34
2022-10-05T18:15:46.784Z,100501.41
2022-10-05T18:17:40.731Z,100506.88
2022-10-05T18:19:17.376Z,100498.28
2022-10-05T18:21:32.416Z,100502.88
2022-10-05T18:23:30.288Z,100512.81
2022-10-05T18:25:07.506Z,100504.19
2022-10-05T18:26:52.450Z,100513.03
2022-10-05T18:28:35.740Z,100509.50
2022-10-05T18:30:18.854Z,100512.13
2022-10-05T18:31:59.770Z,100514.78
2022-10-05T18:33:50.290Z,100517.47
2022-10-05T18:35:28.810Z,100510.38
2022-10-05T18:37:17.460Z,100520.09
2022-10-05T18:39:02.513Z,100520.97
2022-10-05T18:40:44.604Z,100514.78
2022-10-05T18:42:27.863Z,100517.50
2022-10-05T18:44:14.632Z,100525.47
2022-10-05T18:46:01.499Z,100525.41
2022-10-05T18:47:45.100Z,100520.97
2022-10-05T18:49:34.687Z,100531.59
2022-10-05T18:51:15.909Z,100537.75
2022-10-05T18:53:05.785Z,100526.38
2022-10-05T18:54:48.966Z,100528.16
2022-10-05T18:56:27.439Z,100539.63
2022-10-05T18:58:21.562Z,100532.53
2022-10-05T19:00:01.969Z,100530.75
2022-10-05T19:01:57.101Z,100534.41
2022-10-05T19:03:37.034Z,100536.16
2022-10-05T19:05:46.410Z,100541.53
2022-10-05T19:07:26.691Z,100545.06
2022-10-05T19:09:08.231Z,100547.84
2022-10-05T19:10:46.167Z,100552.44
2022-10-05T19:12:29.319Z,100547.22
2022-10-05T19:14:12.548Z,100551.03
2022-10-05T19:15:55.646Z,100549.53
2022-10-05T19:17:48.266Z,100556.81
2022-10-05T19:19:48.262Z,100553.63
2022-10-05T19:21:32.107Z,100552.19
2022-10-05T19:23:18.628Z,100545.22
2022-10-05T19:25:13.808Z,100551.47
2022-10-05T19:27:03.988Z,100533.09
2022-10-05T19:28:42.711Z,100552.47
2022-10-05T19:30:21.663Z,100544.56
2022-10-05T19:32:01.006Z,100558.75
2022-10-05T19:33:46.130Z,100559.72
2022-10-05T19:35:29.889Z,100562.34
2022-10-05T19:37:09.437Z,100558.00
2022-10-05T19:38:54.470Z,100557.13
2022-10-05T19:40:39.006Z,100558.06
2022-10-05T19:42:25.469Z,100559.94
2022-10-05T19:44:13.658Z,100565.19
2022-10-05T19:45:59.501Z,100559.94
2022-10-05T19:47:46.884Z,100550.22
2022-10-05T19:49:43.004Z,100569.69
2022-10-05T19:51:27.909Z,100567.06
2022-10-05T19:53:13.265Z,100573.28
2022-10-05T19:54:47.776Z,100574.22
2022-10-05T19:56:22.681Z,100578.72
2022-10-05T19:57:59.907Z,100571.53
2022-10-05T19:59:33.050Z,100575.94
2022-10-05T20:01:06.992Z,100572.47
2022-10-05T20:02:42.179Z,100571.59
2022-10-05T20:04:16.669Z,100571.59
2022-10-05T20:05:50.541Z,100568.97
2022-10-05T20:07:23.820Z,100567.22
2022-10-05T20:09:04.581Z,100570.75